Time;durP1;ratioP1;P1;durP2;ratioP2;P2;SDS_P1;SDS_P2;PMS_P1;PMS_P2;Temp;Humidity;BMP_temperature;BMP_pressure;BME280_temperature;BME280_humidity;BME280_pressure;Samples;Min_cycle;Max_cycle;Signal;HPM_P1;HPM_P2
2021/09/12 00:00:14;;;;;;;23.20;16.80;;;;;;;11.29;83.04;97465.83;116279;1183;71763;-70
2021/09/12 00:03:04;;;;;;;22.70;15.50;;;;;;;11.25;81.44;97470.11;116225;1183;68469;-72
2021/09/12 00:05:34;;;;;;;26.40;17.70;;;;;;;11.21;82.11;97470.38;116192;1183;68471;-71
2021/09/12 00:08:04;;;;;;;22.20;15.90;;;;;;;11.16;82.52;97468.40;116203;1179;60343;-73
2021/09/12 00:10:34;;;;;;;25.70;15.80;;;;;;;11.11;82.17;97465.77;116105;1183;60407;-76
2021/09/12 00:13:04;;;;;;;;;;;;;;;11.07;81.94;97464.30;116259;1183;72303;-74
2021/09/12 00:15:34;;;;;;;23.30;14.40;;;;;;;11.03;82.78;97460.63;116223;1180;67610;-71
2021/09/12 00:18:03;;;;;;;21.90;16.10;;;;;;;11.02;83.53;97460.05;116235;1180;69218;-73
2021/09/12 00:20:33;;;;;;;25.70;17.10;;;;;;;11.00;83.95;97459.08;116243;1179;60682;-71
2021/09/12 00:23:03;;;;;;;24.60;15.30;;;;;;;10.97;83.02;97457.91;116206;1184;60285;-72
2021/09/12 00:25:32;;;;;;;25.10;18.10;;;;;;;10.96;82.90;97461.03;116216;1184;71366;-71
2021/09/12 00:28:02;;;;;;;33.00;19.50;;;;;;;10.92;82.69;97460.16;116253;1179;68176;-71
2021/09/12 00:30:32;;;;;;;29.50;20.10;;;;;;;10.84;81.51;97459.33;116206;1183;68250;-74
2021/09/12 00:33:02;;;;;;;31.40;20.30;;;;;;;10.72;81.29;97458.01;116171;1183;60428;-73
2021/09/12 00:35:31;;;;;;;32.60;21.10;;;;;;;10.60;81.38;97464.61;116184;1179;60264;-71
2021/09/12 00:38:01;;;;;;;31.90;20.20;;;;;;;10.51;81.94;97466.75;116127;1183;71357;-71
2021/09/12 00:40:32;;;;;;;29.10;17.80;;;;;;;10.45;82.48;97469.05;116122;1184;69160;-70
2021/09/12 00:43:02;;;;;;;27.70;19.20;;;;;;;10.40;82.64;97472.05;116177;1184;69192;-71
2021/09/12 00:45:32;;;;;;;27.00;18.40;;;;;;;10.36;82.77;97471.36;116201;1180;60371;-70
2021/09/12 00:48:02;;;;;;;;;;;;;;;10.33;82.07;97469.88;116167;1184;60359;-69
2021/09/12 00:50:32;;;;;;;22.60;14.70;;;;;;;10.32;82.48;97476.93;116095;1182;71403;-71
2021/09/12 00:53:04;;;;;;;35.50;20.30;;;;;;;10.34;84.56;97478.63;116182;1184;68570;-71
2021/09/12 00:55:38;;;;;;;31.50;19.80;;;;;;;10.31;83.05;97481.33;116197;1184;68445;-70
2021/09/12 00:58:21;;;;;;;26.60;16.60;;;;;;;10.26;82.55;97484.21;116126;1184;60798;-70
2021/09/12 01:00:50;;;;;;;28.60;17.70;;;;;;;10.22;83.02;97480.77;116207;1184;60339;-70
2021/09/12 01:03:20;;;;;;;28.20;17.90;;;;;;;10.20;83.41;97479.84;116152;1181;72348;-70
2021/09/12 01:05:50;;;;;;;28.50;18.40;;;;;;;10.17;82.82;97479.67;116232;1179;69199;-72
2021/09/12 01:08:20;;;;;;;27.50;18.40;;;;;;;10.15;82.07;97473.98;116168;1184;68641;-71
2021/09/12 01:10:50;;;;;;;27.60;19.00;;;;;;;10.15;82.00;97474.38;116169;1184;60363;-72
2021/09/12 01:13:19;;;;;;;22.50;17.00;;;;;;;10.13;82.02;97474.44;115988;1181;60743;-72
2021/09/12 01:15:49;;;;;;;24.40;17.60;;;;;;;10.12;82.94;97469.15;116137;1184;72111;-72
2021/09/12 01:18:19;;;;;;;25.50;19.30;;;;;;;10.14;84.05;97466.88;116160;1180;69171;-74
2021/09/12 01:20:48;;;;;;;25.10;17.30;;;;;;;10.15;84.42;97463.69;116065;1181;69571;-71
2021/09/12 01:23:18;;;;;;;23.90;17.70;;;;;;;10.16;83.60;97465.98;116171;1184;60323;-71
2021/09/12 01:25:47;;;;;;;28.10;19.10;;;;;;;10.15;82.87;97468.36;116061;1184;60326;-73
2021/09/12 01:28:18;;;;;;;26.50;18.70;;;;;;;10.13;83.21;97466.30;116076;1184;71991;-72
2021/09/12 01:30:47;;;;;;;;;;;;;;;10.07;82.77;97466.36;116107;1184;69115;-74
2021/09/12 01:33:18;;;;;;;29.70;19.60;;;;;;;10.02;84.22;97462.85;116092;1184;68428;-73
2021/09/12 01:35:48;;;;;;;24.50;18.20;;;;;;;9.98;84.50;97457.50;116054;1184;60330;-71
2021/09/12 01:38:18;;;;;;;26.90;18.10;;;;;;;9.94;84.55;97457.05;116124;1184;60350;-71
2021/09/12 01:40:48;;;;;;;26.30;18.00;;;;;;;9.91;84.49;97457.45;116101;1181;72138;-71
2021/09/12 01:43:21;;;;;;;21.60;16.70;;;;;;;9.86;84.57;97458.44;116165;1180;68846;-74
2021/09/12 01:45:50;;;;;;;26.90;19.20;;;;;;;9.83;84.90;97459.64;116045;1185;68405;-71
2021/09/12 01:48:20;;;;;;;23.60;16.90;;;;;;;9.80;84.40;97457.50;116192;1181;60422;-71
2021/09/12 01:50:50;;;;;;;24.80;17.20;;;;;;;9.76;85.96;97457.29;116109;1184;60339;-73
2021/09/12 01:53:20;;;;;;;30.60;17.90;;;;;;;9.73;85.83;97454.84;116166;1179;71221;-70
2021/09/12 01:55:49;;;;;;;26.90;18.20;;;;;;;9.69;85.14;97452.89;116131;1180;68417;-72
2021/09/12 01:58:19;;;;;;;21.80;16.00;;;;;;;9.65;85.64;97456.30;116073;1180;68430;-72
2021/09/12 02:00:48;;;;;;;20.80;16.10;;;;;;;9.62;86.54;97457.32;116125;1180;60397;-71
2021/09/12 02:03:18;;;;;;;21.60;16.00;;;;;;;9.59;86.24;97455.27;116163;1181;60334;-70
2021/09/12 02:05:48;;;;;;;25.50;16.30;;;;;;;9.57;85.93;97455.49;116209;1184;72137;-71
2021/09/12 02:08:17;;;;;;;23.60;16.60;;;;;;;9.55;86.56;97453.01;116103;1184;69188;-72
2021/09/12 02:10:47;;;;;;;24.40;17.90;;;;;;;9.53;86.58;97448.40;116209;1184;68996;-71
2021/09/12 02:13:17;;;;;;;28.10;17.70;;;;;;;9.50;85.54;97450.53;116192;1184;60351;-72
2021/09/12 02:15:47;;;;;;;23.60;17.20;;;;;;;9.46;85.23;97449.42;116028;1182;60377;-74
2021/09/12 02:18:16;;;;;;;23.70;17.00;;;;;;;9.43;84.95;97446.60;116211;1184;72162;-72
2021/09/12 02:20:46;;;;;;;23.00;17.70;;;;;;;9.39;84.60;97443.52;116191;1183;68385;-70
2021/09/12 02:23:16;;;;;;;22.10;17.20;;;;;;;9.37;84.15;97446.20;116160;1184;69240;-71
2021/09/12 02:25:45;;;;;;;22.60;15.40;;;;;;;9.36;85.38;97441.39;116173;1180;60377;-72
2021/09/12 02:28:15;;;;;;;22.30;15.10;;;;;;;9.35;86.95;97441.19;116274;1184;60355;-75
2021/09/12 02:30:45;;;;;;;23.10;15.50;;;;;;;9.30;86.68;97437.09;116187;1184;72011;-73
2021/09/12 02:33:14;;;;;;;;;;;;;;;9.28;87.25;97435.58;116213;1180;68229;-73
2021/09/12 02:35:44;;;;;;;21.20;13.70;;;;;;;9.26;87.44;97434.91;116183;1182;69036;-71
2021/09/12 02:38:14;;;;;;;20.90;14.80;;;;;;;9.24;86.81;97434.58;116201;1184;60362;-71
2021/09/12 02:40:44;;;;;;;71.80;21.60;;;;;;;9.21;86.27;97438.73;116227;1182;60418;-72
2021/09/12 02:43:13;;;;;;;69.60;20.90;;;;;;;9.18;85.06;97441.42;116304;1183;71196;-76
2021/09/12 02:45:43;;;;;;;26.20;19.50;;;;;;;9.16;85.37;97443.45;116280;1179;68341;-71
2021/09/12 02:48:13;;;;;;;;;;;;;;;9.13;85.14;97444.21;116238;1184;68470;-72
2021/09/12 02:50:42;;;;;;;24.90;16.20;;;;;;;9.04;84.62;97443.80;116256;1182;60354;-72
2021/09/12 02:53:12;;;;;;;24.20;15.30;;;;;;;8.92;84.42;97440.11;116256;1179;60297;-71
2021/09/12 02:55:43;;;;;;;20.70;15.30;;;;;;;8.86;85.07;97441.39;116315;1179;72327;-73
2021/09/12 02:58:12;;;;;;;22.70;14.80;;;;;;;8.82;86.28;97436.73;116303;1184;68364;-74
2021/09/12 03:00:42;;;;;;;21.70;15.10;;;;;;;8.79;85.48;97435.27;116294;1184;69229;-71
2021/09/12 03:03:12;;;;;;;20.30;13.80;;;;;;;8.77;86.80;97438.15;116295;1182;60335;-73
2021/09/12 03:05:42;;;;;;;27.80;17.50;;;;;;;8.79;87.77;97437.41;116256;1179;60355;-71
2021/09/12 03:08:12;;;;;;;42.80;24.40;;;;;;;8.77;86.37;97440.84;116268;1184;72195;-72
2021/09/12 03:10:42;;;;;;;33.90;22.30;;;;;;;8.70;85.39;97440.83;116213;1179;69169;-71
2021/09/12 03:13:12;;;;;;;39.10;25.40;;;;;;;8.62;85.55;97444.80;116238;1184;69125;-73
2021/09/12 03:15:42;;;;;;;73.40;41.30;;;;;;;8.55;85.77;97444.16;116271;1179;60396;-72
2021/09/12 03:18:12;;;;;;;119.30;67.10;;;;;;;8.49;85.71;97447.20;116129;1181;60297;-74
2021/09/12 03:20:42;;;;;;;58.00;36.70;;;;;;;8.47;86.15;97448.52;116255;1178;70641;-71
2021/09/12 03:23:11;;;;;;;121.30;69.60;;;;;;;8.47;87.16;97450.73;116253;1183;68514;-71
2021/09/12 03:25:41;;;;;;;105.60;69.20;;;;;;;8.47;86.98;97451.77;116130;1184;69213;-71
2021/09/12 03:28:11;;;;;;;109.30;66.60;;;;;;;8.49;87.44;97452.73;116260;1183;60303;-71
2021/09/12 03:30:41;;;;;;;98.10;62.60;;;;;;;8.49;86.43;97451.07;116329;1179;60417;-72
2021/09/12 03:33:14;;;;;;;53.60;35.40;;;;;;;8.50;86.18;97455.23;116231;1184;71877;-70
2021/09/12 03:35:44;;;;;;;42.50;30.40;;;;;;;8.51;87.17;97452.37;116240;1184;68452;-73
2021/09/12 03:38:14;;;;;;;38.90;27.20;;;;;;;8.51;87.17;97447.33;116263;1184;68543;-71
2021/09/12 03:40:43;;;;;;;28.10;19.40;;;;;;;8.51;86.48;97445.98;116274;1184;60698;-71
2021/09/12 03:43:13;;;;;;;28.30;18.80;;;;;;;8.51;86.85;97448.11;116292;1179;60264;-71
2021/09/12 03:45:43;;;;;;;26.20;18.60;;;;;;;8.51;87.40;97446.86;116133;1183;72000;-72
2021/09/12 03:48:13;;;;;;;23.50;16.40;;;;;;;8.50;87.06;97449.87;116294;1184;68481;-73
2021/09/12 03:50:43;;;;;;;28.50;20.00;;;;;;;8.54;87.57;97451.21;116329;1180;68791;-75
2021/09/12 03:53:12;;;;;;;25.30;18.00;;;;;;;8.56;87.67;97453.61;116284;1179;60332;-70
2021/09/12 03:55:42;;;;;;;23.60;16.90;;;;;;;8.60;88.87;97455.96;116294;1184;60365;-71
2021/09/12 03:58:12;;;;;;;;;;;;;;;8.66;89.31;97456.95;116243;1184;70241;-71
2021/09/12 04:00:41;;;;;;;24.70;17.90;;;;;;;8.67;88.56;97456.05;116292;1179;68957;-73
2021/09/12 04:03:11;;;;;;;30.60;20.00;;;;;;;8.67;87.89;97457.64;116267;1180;68252;-73
2021/09/12 04:05:40;;;;;;;31.50;19.60;;;;;;;8.67;87.18;97459.23;116256;1179;60375;-71
2021/09/12 04:08:10;;;;;;;49.00;18.40;;;;;;;8.62;85.98;97460.82;116288;1179;60323;-71
2021/09/12 04:10:39;;;;;;;47.40;19.10;;;;;;;8.50;85.67;97460.92;116296;1183;71199;-71
2021/09/12 04:13:09;;;;;;;40.20;17.10;;;;;;;8.38;85.95;97463.42;116209;1182;69204;-72
2021/09/12 04:15:38;;;;;;;51.50;19.60;;;;;;;8.27;86.29;97462.60;116087;1184;69047;-71
2021/09/12 04:18:07;;;;;;;28.90;19.00;;;;;;;8.25;86.93;97465.39;116304;1179;60813;-71
2021/09/12 04:20:37;;;;;;;26.00;21.00;;;;;;;8.29;87.26;97463.69;116237;1180;60263;-71
2021/09/12 04:23:07;;;;;;;23.10;19.00;;;;;;;8.37;86.71;97466.75;116250;1179;71458;-70
2021/09/12 04:25:36;;;;;;;53.70;21.90;;;;;;;8.50;88.63;97464.21;116090;1184;69288;-71
2021/09/12 04:28:05;;;;;;;21.90;17.60;;;;;;;8.62;89.58;97467.98;116173;1181;68454;-72
2021/09/12 04:30:35;;;;;;;21.40;17.70;;;;;;;8.75;89.44;97468.42;116281;1179;60420;-72
2021/09/12 04:33:05;;;;;;;23.90;18.10;;;;;;;8.88;88.73;97474.15;116319;1179;60365;-70
2021/09/12 04:35:34;;;;;;;25.00;18.70;;;;;;;9.01;87.99;97469.76;116282;1180;71342;-71
2021/09/12 04:38:04;;;;;;;19.50;15.80;;;;;;;9.13;87.93;97474.36;116243;1183;68716;-71
2021/09/12 04:40:33;;;;;;;19.60;15.10;;;;;;;9.21;87.50;97475.36;116281;1183;69052;-71
2021/09/12 04:43:02;;;;;;;20.10;14.50;;;;;;;9.33;86.81;97473.05;116232;1183;60361;-71
2021/09/12 04:45:32;;;;;;;19.40;14.60;;;;;;;9.46;85.62;97475.19;116258;1183;60290;-71
2021/09/12 04:48:01;;;;;;;22.20;14.40;;;;;;;9.62;85.28;97476.92;116058;1181;71427;-72
2021/09/12 04:50:30;;;;;;;20.80;14.50;;;;;;;9.82;85.17;97480.04;116237;1184;69227;-72
2021/09/12 04:52:59;;;;;;;19.20;13.60;;;;;;;10.12;84.31;97480.14;116282;1184;69232;-71
2021/09/12 04:55:28;;;;;;;19.80;13.30;;;;;;;10.42;83.32;97481.71;116053;1184;60353;-71
2021/09/12 04:57:58;;;;;;;21.30;14.80;;;;;;;10.73;81.84;97481.23;116289;1181;60353;-74
2021/09/12 05:00:28;;;;;;;24.00;14.20;;;;;;;11.03;79.81;97483.92;116249;1184;71967;-71
2021/09/12 05:02:57;;;;;;;21.20;13.40;;;;;;;11.28;78.75;97485.93;116235;1179;69050;-72
2021/09/12 05:05:27;;;;;;;19.40;12.80;;;;;;;11.37;78.23;97483.65;116248;1184;69404;-74
2021/09/12 05:07:56;;;;;;;17.40;12.90;;;;;;;11.67;77.81;97484.11;116263;1184;60350;-71
2021/09/12 05:10:30;;;;;;;18.40;11.90;;;;;;;12.04;77.57;97482.83;116262;1180;60407;-74
2021/09/12 05:12:59;;;;;;;39.40;21.40;;;;;;;12.36;75.56;97481.65;116232;1184;72147;-69
2021/09/12 05:15:28;;;;;;;62.80;31.20;;;;;;;12.82;77.11;97487.64;116287;1179;69119;-72
2021/09/12 05:17:57;;;;;;;57.40;30.50;;;;;;;13.21;74.63;97485.89;116263;1184;68428;-71
2021/09/12 05:20:27;;;;;;;54.70;29.80;;;;;;;13.60;75.31;97481.78;116260;1182;60362;-71
2021/09/12 05:22:56;;;;;;;52.60;29.30;;;;;;;13.84;70.17;97481.29;116292;1184;60392;-72
2021/09/12 05:25:26;;;;;;;49.00;26.60;;;;;;;14.05;70.34;97483.02;116307;1183;71398;-73
2021/09/12 05:27:55;;;;;;;45.00;24.60;;;;;;;14.41;72.53;97485.55;116239;1184;69257;-71
2021/09/12 05:30:24;;;;;;;46.00;24.70;;;;;;;14.74;71.48;97486.73;116251;1184;69347;-71
2021/09/12 05:32:54;;;;;;;41.80;22.80;;;;;;;15.04;71.17;97487.84;116276;1179;60777;-73
2021/09/12 05:35:23;;;;;;;37.80;20.50;;;;;;;15.20;68.01;97489.71;116283;1180;60756;-70
2021/09/12 05:37:52;;;;;;;38.00;20.00;;;;;;;15.27;66.03;97486.04;116095;1184;71823;-72
2021/09/12 05:40:22;;;;;;;38.20;20.10;;;;;;;15.46;67.13;97483.14;116262;1183;68722;-73
2021/09/12 05:42:51;;;;;;;41.90;22.60;;;;;;;15.58;64.86;97487.63;116140;1181;69272;-73
2021/09/12 05:45:21;;;;;;;44.90;21.80;;;;;;;15.80;65.14;97489.11;116076;1181;60417;-75
2021/09/12 05:47:50;;;;;;;33.80;18.50;;;;;;;16.18;65.07;97487.23;116254;1182;60336;-71
2021/09/12 05:50:19;;;;;;;30.00;17.30;;;;;;;16.54;66.15;97488.36;116182;1184;71220;-71
2021/09/12 05:52:48;;;;;;;32.90;16.70;;;;;;;16.89;64.45;97490.00;116294;1183;69159;-71
2021/09/12 05:55:17;;;;;;;29.00;16.50;;;;;;;17.20;62.03;97488.45;116237;1184;68412;-71
2021/09/12 05:57:46;;;;;;;32.90;17.10;;;;;;;17.36;61.64;97488.55;116250;1183;60326;-75
2021/09/12 06:00:16;;;;;;;32.20;16.60;;;;;;;17.29;60.14;97493.73;116248;1183;60298;-74
2021/09/12 06:02:45;;;;;;;27.10;16.90;;;;;;;17.54;60.38;97493.25;116296;1183;71957;-73
2021/09/12 06:05:14;;;;;;;30.80;16.30;;;;;;;17.83;60.43;97492.23;116258;1184;69323;-73
2021/09/12 06:07:43;;;;;;;27.50;16.50;;;;;;;18.11;60.00;97488.55;116258;1184;68554;-75
2021/09/12 06:10:13;;;;;;;35.00;17.20;;;;;;;18.27;59.21;97488.70;116234;1183;60369;-73
2021/09/12 06:12:42;;;;;;;23.20;14.30;;;;;;;18.19;58.68;97491.77;116262;1182;60349;-72
2021/09/12 06:15:12;;;;;;;24.70;14.50;;;;;;;18.51;58.37;97493.69;116262;1184;71486;-71
2021/09/12 06:17:41;;;;;;;24.60;15.90;;;;;;;18.58;57.48;97491.54;116337;1184;69047;-71
2021/09/12 06:20:11;;;;;;;29.30;16.30;;;;;;;18.68;57.48;97494.15;116216;1183;69350;-72
2021/09/12 06:22:48;;;;;;;27.20;15.40;;;;;;;18.75;57.27;97493.40;116118;1181;60388;-74
2021/09/12 06:25:18;;;;;;;23.70;12.60;;;;;;;19.01;56.87;97493.51;116081;1180;60339;-71
2021/09/12 06:27:47;;;;;;;21.80;12.20;;;;;;;18.91;56.51;97494.48;116303;1184;72140;-76
2021/09/12 06:30:18;;;;;;;20.40;11.80;;;;;;;19.14;56.06;97499.25;116247;1179;69954;-72
2021/09/12 06:32:48;;;;;;;15.50;10.20;;;;;;;19.34;55.99;97507.34;116254;1183;69009;-71
2021/09/12 06:35:17;;;;;;;18.30;10.30;;;;;;;19.68;55.35;97506.77;116278;1180;60327;-73
2021/09/12 06:37:47;;;;;;;14.40;10.10;;;;;;;19.99;55.16;97505.43;116288;1182;60360;-73
2021/09/12 06:40:16;;;;;;;18.30;10.00;;;;;;;20.02;54.00;97508.00;116281;1184;72082;-77
2021/09/12 06:42:45;;;;;;;15.40;8.70;;;;;;;19.96;53.56;97510.72;116286;1184;68707;-73
2021/09/12 06:45:16;;;;;;;14.40;9.60;;;;;;;19.90;54.59;97513.66;116264;1183;68335;-73
2021/09/12 06:47:45;;;;;;;15.90;9.00;;;;;;;20.23;54.17;97521.37;116315;1183;60288;-75
2021/09/12 06:50:14;;;;;;;13.10;8.00;;;;;;;20.44;52.96;97522.80;116301;1180;60395;-71
2021/09/12 06:52:43;;;;;;;12.90;9.10;;;;;;;20.16;53.33;97522.91;116295;1183;72155;-74
2021/09/12 06:55:12;;;;;;;11.70;8.20;;;;;;;20.30;52.91;97525.02;116285;1184;68396;-74
2021/09/12 06:57:42;;;;;;;13.60;8.50;;;;;;;20.69;52.72;97524.80;116244;1184;68991;-74
2021/09/12 07:00:11;;;;;;;15.50;10.00;;;;;;;20.87;51.74;97524.95;116290;1183;60321;-72
2021/09/12 07:02:41;;;;;;;14.70;10.60;;;;;;;21.06;50.73;97524.95;116290;1184;60346;-74
2021/09/12 07:05:11;;;;;;;15.80;10.70;;;;;;;20.95;51.03;97523.65;116164;1181;71179;-74
2021/09/12 07:07:40;;;;;;;13.50;7.60;;;;;;;21.15;50.68;97518.67;116301;1184;69471;-74
2021/09/12 07:10:09;;;;;;;10.40;7.20;;;;;;;21.54;49.55;97523.79;116141;1184;68541;-72
2021/09/12 07:12:38;;;;;;;13.70;7.60;;;;;;;21.96;48.42;97523.45;116153;1184;60375;-73
2021/09/12 07:15:08;;;;;;;10.70;6.90;;;;;;;22.14;47.24;97521.08;116225;1184;60294;-76
2021/09/12 07:17:37;;;;;;;12.30;7.00;;;;;;;22.41;47.44;97521.30;116089;1182;72034;-74
2021/09/12 07:20:07;;;;;;;13.60;7.10;;;;;;;22.57;46.29;97522.02;116146;1182;69173;-72
2021/09/12 07:22:36;;;;;;;10.50;6.70;;;;;;;22.71;45.78;97522.57;116172;1179;68617;-72
2021/09/12 07:25:06;;;;;;;10.40;7.20;;;;;;;22.70;45.55;97524.27;116095;1181;60275;-74
2021/09/12 07:27:35;;;;;;;11.50;7.00;;;;;;;22.85;45.23;97522.77;116277;1184;60383;-71
2021/09/12 07:30:11;;;;;;;14.00;7.20;;;;;;;22.84;44.83;97522.89;116039;1185;71482;-75
2021/09/12 07:32:42;;;;;;;13.80;6.80;;;;;;;22.78;44.75;97522.02;116276;1179;68489;-78
2021/09/12 07:35:11;;;;;;;11.00;6.60;;;;;;;22.45;45.36;97523.96;116319;1179;69239;-77
2021/09/12 07:37:40;;;;;;;14.40;7.00;;;;;;;22.29;46.25;97522.67;116274;1184;60368;-73
2021/09/12 07:40:10;;;;;;;11.80;7.50;;;;;;;22.76;45.26;97523.13;116311;1184;60403;-72
2021/09/12 07:42:41;;;;;;;;;;;;;;;22.58;45.74;97520.58;116330;1184;72396;-74
2021/09/12 07:45:10;;;;;;;11.70;6.40;;;;;;;23.08;45.38;97518.90;116140;1184;68637;-78
2021/09/12 07:47:39;;;;;;;10.40;6.70;;;;;;;23.48;43.78;97514.11;116255;1183;68261;-77
2021/09/12 07:50:09;;;;;;;13.90;6.70;;;;;;;23.75;43.05;97515.29;116291;1183;60367;-72
2021/09/12 07:52:42;;;;;;;;;;;;;;;23.94;42.59;97513.58;116330;1180;60307;-74
2021/09/12 07:55:13;;;;;;;9.60;6.30;;;;;;;23.86;42.40;97512.57;116253;1184;72069;-76
2021/09/12 07:57:42;;;;;;;11.00;7.20;;;;;;;24.18;42.45;97512.81;116297;1182;69133;-77
2021/09/12 08:00:12;;;;;;;13.60;6.10;;;;;;;24.21;41.81;97514.36;116258;1184;68454;-74
2021/09/12 08:02:42;;;;;;;9.10;6.10;;;;;;;23.86;42.75;97511.47;116103;1185;60395;-76
2021/09/12 08:05:12;;;;;;;10.00;6.40;;;;;;;24.19;41.50;97511.10;116294;1181;60356;-74
2021/09/12 08:07:41;;;;;;;9.00;6.30;;;;;;;24.06;42.37;97508.21;116173;1184;71227;-72
2021/09/12 08:10:11;;;;;;;10.20;6.60;;;;;;;24.45;41.66;97508.84;116230;1183;68563;-75
2021/09/12 08:12:40;;;;;;;12.10;7.20;;;;;;;24.80;40.09;97504.63;116239;1180;69207;-78
2021/09/12 08:15:09;;;;;;;9.00;6.60;;;;;;;24.33;41.28;97500.20;116274;1179;60349;-74
2021/09/12 08:17:38;;;;;;;15.80;6.80;;;;;;;25.15;40.38;97502.77;116351;1185;60293;-75
2021/09/12 08:20:09;;;;;;;13.70;6.50;;;;;;;25.30;39.79;97500.52;116318;1183;71812;-75
2021/09/12 08:22:38;;;;;;;10.90;6.70;;;;;;;25.97;37.74;97498.86;116342;1184;68526;-72
2021/09/12 08:25:08;;;;;;;17.80;7.00;;;;;;;25.15;38.98;97498.41;116125;1184;69459;-77
2021/09/12 08:27:37;;;;;;;9.70;6.20;;;;;;;25.83;38.04;97493.44;116130;1184;60337;-80
2021/09/12 08:30:07;;;;;;;14.00;7.20;;;;;;;26.00;38.34;97493.85;116264;1185;60619;-80
2021/09/12 08:32:36;;;;;;;11.00;6.60;;;;;;;26.55;36.74;97489.48;116299;1185;72165;-78
2021/09/12 08:35:06;;;;;;;14.10;9.60;;;;;;;26.73;36.54;97481.98;116305;1179;69149;-72
2021/09/12 08:37:36;;;;;;;10.80;6.60;;;;;;;27.37;35.15;97477.86;116268;1184;69186;-80
2021/09/12 08:40:06;;;;;;;12.20;6.90;;;;;;;27.55;34.28;97477.99;116131;1183;60407;-73
2021/09/12 08:42:36;;;;;;;8.90;6.30;;;;;;;27.16;35.24;97479.09;116171;1184;60369;-76
2021/09/12 08:45:06;;;;;;;11.50;6.50;;;;;;;26.94;35.93;97479.30;116092;1179;72185;-77
2021/09/12 08:47:35;;;;;;;;;;;;;;;27.26;34.51;97473.53;116179;1179;68390;-79
2021/09/12 08:50:05;;;;;;;10.90;6.50;;;;;;;27.38;33.92;97474.85;116177;1184;68327;-75
2021/09/12 08:52:33;;;;;;;9.50;6.80;;;;;;;27.12;34.74;97473.13;116142;1179;60316;-79
2021/09/12 08:55:03;;;;;;;13.00;6.60;;;;;;;27.68;33.82;97468.98;116148;1181;60372;-78
2021/09/12 08:57:32;;;;;;;12.70;7.00;;;;;;;27.52;34.43;97465.98;116081;1185;71422;-73
2021/09/12 09:00:14;;;;;;;10.90;6.50;;;;;;;27.75;33.58;97464.37;116170;1179;69324;-76
2021/09/12 09:02:43;;;;;;;10.50;5.80;;;;;;;27.80;34.18;97463.05;116126;1181;69227;-74
2021/09/12 09:05:12;;;;;;;;;;;;;;;28.11;33.83;97459.31;116185;1180;60337;-75
2021/09/12 09:07:41;;;;;;;9.80;6.50;;;;;;;28.69;32.52;97464.33;116202;1180;60333;-72
2021/09/12 09:10:19;;;;;;;9.60;6.50;;;;;;;28.96;32.38;97462.29;116171;1184;71425;-72
2021/09/12 09:12:50;;;;;;;9.10;5.80;;;;;;;29.37;31.87;97461.40;116165;1179;69148;-72
2021/09/12 09:15:22;;;;;;;13.70;6.20;;;;;;;29.47;31.11;97457.65;116183;1184;68562;-77
2021/09/12 09:17:54;;;;;;;9.60;6.60;;;;;;;29.96;30.53;97452.85;116033;1184;60348;-79
2021/09/12 09:20:29;;;;;;;11.00;6.00;;;;;;;29.98;30.74;97456.19;116142;1184;60345;-78
2021/09/12 09:23:04;;;;;;;14.70;7.40;;;;;;;30.31;30.16;97453.90;116139;1181;71460;-74
2021/09/12 09:25:34;;;;;;;9.60;5.70;;;;;;;30.57;29.15;97454.06;116157;1181;68371;-74
2021/09/12 09:28:06;;;;;;;10.20;6.10;;;;;;;30.64;29.03;97454.49;116213;1184;69331;-76
2021/09/12 09:30:49;;;;;;;13.60;6.50;;;;;;;30.54;29.25;97453.16;116139;1184;60371;-73
2021/09/12 09:33:22;;;;;;;11.20;6.40;;;;;;;30.92;28.37;97451.04;116217;1184;60327;-77
2021/09/12 09:36:06;;;;;;;11.00;6.10;;;;;;;30.89;28.97;97447.88;116236;1184;72026;-76
2021/09/12 09:38:39;;;;;;;11.10;6.30;;;;;;;30.87;28.80;97444.40;116177;1184;69215;-71
2021/09/12 09:41:14;;;;;;;11.20;6.10;;;;;;;30.91;28.24;97442.30;116227;1180;68789;-74
2021/09/12 09:43:49;;;;;;;8.70;5.80;;;;;;;31.27;28.14;97437.36;116165;1184;60370;-76
2021/09/12 09:46:32;;;;;;;9.00;6.20;;;;;;;31.22;28.48;97434.45;116253;1182;60292;-74
2021/09/12 09:49:25;;;;;;;10.40;5.80;;;;;;;31.52;27.53;97435.23;116248;1184;72241;-74
2021/09/12 09:52:00;;;;;;;10.10;5.70;;;;;;;31.64;26.84;97430.67;116206;1184;68439;-74
2021/09/12 09:54:34;;;;;;;9.80;5.60;;;;;;;32.07;26.55;97427.81;116209;1184;67456;-78
2021/09/12 09:57:03;;;;;;;9.90;6.30;;;;;;;32.49;25.60;97425.44;116191;1184;60305;-72
2021/09/12 09:59:32;;;;;;;12.60;6.30;;;;;;;32.64;25.66;97421.20;116125;1184;60346;-74
2021/09/12 10:02:01;;;;;;;;;;;;;;;32.54;25.54;97418.65;116299;1183;72138;-72
2021/09/12 10:04:31;;;;;;;13.50;6.10;;;;;;;32.50;25.81;97415.02;116164;1179;68454;-77
2021/09/12 10:07:00;;;;;;;8.70;6.00;;;;;;;32.48;25.32;97415.58;116170;1182;69104;-76
2021/09/12 10:09:29;;;;;;;10.10;6.70;;;;;;;32.27;25.65;97413.56;116123;1184;60788;-77
2021/09/12 10:12:01;;;;;;;11.30;6.00;;;;;;;32.32;25.73;97408.81;116151;1180;60298;-75
2021/09/12 10:14:40;;;;;;;9.00;6.10;;;;;;;32.56;25.18;97406.36;116136;1182;72280;-79
2021/09/12 10:17:14;;;;;;;11.70;6.00;;;;;;;32.55;25.00;97401.21;116185;1179;69047;-76
2021/09/12 10:19:43;;;;;;;11.10;6.10;;;;;;;32.41;25.57;97400.52;116207;1183;69544;-74
2021/09/12 10:22:14;;;;;;;;;;;;;;;32.61;25.42;97393.57;116167;1179;60324;-79
2021/09/12 10:25:15;;;;;;;14.80;6.40;;;;;;;32.84;24.79;97392.89;116264;1179;60295;-79
2021/09/12 10:27:46;;;;;;;9.80;6.30;;;;;;;32.90;24.58;97392.37;115722;1189;71504;-80
2021/09/12 10:30:24;;;;;;;8.90;6.10;;;;;;;33.03;24.79;97393.98;115649;1189;69200;-79
2021/09/12 10:33:13;;;;;;;11.40;6.30;;;;;;;33.12;24.80;97393.38;115709;1185;68476;-76
2021/09/12 10:35:42;;;;;;;;;;;;;;;32.20;25.61;97388.79;115724;1188;60280;-73
2021/09/12 10:38:11;;;;;;;12.00;6.60;;;;;;;32.60;25.36;97393.63;115730;1184;60368;-79
2021/09/12 10:40:47;;;;;;;10.00;5.90;;;;;;;32.80;24.65;97390.38;115681;1189;71375;-75
2021/09/12 10:43:27;;;;;;;9.70;6.20;;;;;;;33.41;24.39;97390.52;115646;1189;68410;-76
2021/09/12 10:46:02;;;;;;;11.50;6.70;;;;;;;33.77;23.39;97392.02;115680;1189;68564;-79
2021/09/12 10:48:31;;;;;;;10.50;7.10;;;;;;;33.82;23.33;97391.74;115707;1186;60365;-77
2021/09/12 10:51:02;;;;;;;10.40;6.80;;;;;;;33.17;24.33;97388.75;115718;1186;60364;-77
2021/09/12 10:53:46;;;;;;;11.80;7.20;;;;;;;33.80;24.22;97387.56;115732;1187;72216;-74
2021/09/12 10:56:18;;;;;;;12.10;8.10;;;;;;;33.99;23.58;97382.70;115704;1189;69157;-79
2021/09/12 10:58:52;;;;;;;10.90;8.10;;;;;;;33.84;23.90;97385.51;115707;1185;68642;-75
2021/09/12 11:01:28;;;;;;;13.90;7.70;;;;;;;34.07;23.91;97381.95;115726;1185;60378;-73
2021/09/12 11:03:59;;;;;;;8.70;6.00;;;;;;;33.48;25.52;97380.72;115911;1185;60332;-72
2021/09/12 11:06:34;;;;;;;13.70;7.50;;;;;;;33.76;24.25;97379.17;116183;1184;72064;-73
2021/09/12 11:09:15;;;;;;;9.40;6.10;;;;;;;34.20;22.64;97378.38;116197;1184;69183;-72
2021/09/12 11:11:44;;;;;;;10.80;7.60;;;;;;;34.23;22.54;97380.00;116162;1184;69316;-79
2021/09/12 11:14:17;;;;;;;;;;;;;;;33.65;23.46;97374.99;116255;1184;60314;-77
2021/09/12 11:16:46;;;;;;;14.80;11.20;;;;;;;33.78;23.63;97371.36;116302;1179;60349;-75
2021/09/12 11:19:16;;;;;;;11.60;8.80;;;;;;;33.58;23.91;97371.52;116194;1184;72742;-76
2021/09/12 11:21:48;;;;;;;10.50;8.00;;;;;;;34.09;23.03;97367.32;116097;1185;68878;-74
2021/09/12 11:24:24;;;;;;;13.00;9.20;;;;;;;34.67;22.94;97366.60;116160;1184;69480;-76
2021/09/12 11:26:57;;;;;;;13.90;9.80;;;;;;;34.91;21.79;97366.34;116160;1184;60293;-75
2021/09/12 11:29:28;;;;;;;16.00;10.60;;;;;;;34.58;21.17;97365.77;116086;1183;60340;-72
2021/09/12 11:31:57;;;;;;;13.80;10.30;;;;;;;34.04;22.31;97367.40;116199;1185;72027;-79
2021/09/12 11:34:26;;;;;;;;;;;;;;;33.60;23.15;97366.73;116235;1184;68412;-72